createdAt,value
2023-01-12T00:02:21.806Z,21.80
2023-01-12T00:04:49.485Z,21.80
2023-01-12T00:07:18.249Z,21.80
2023-01-12T00:09:45.867Z,21.70
2023-01-12T00:12:14.677Z,21.70
2023-01-12T00:14:42.418Z,21.70
2023-01-12T00:17:12.090Z,21.70
2023-01-12T00:19:40.411Z,21.70
2023-01-12T00:22:12.381Z,21.60
2023-01-12T00:24:45.129Z,21.60
2023-01-12T00:27:16.352Z,21.60
2023-01-12T00:29:44.143Z,21.60
2023-01-12T00:32:18.352Z,21.60
2023-01-12T00:34:45.951Z,21.60
2023-01-12T00:37:14.008Z,21.50
2023-01-12T00:39:45.937Z,21.60
2023-01-12T00:42:34.888Z,21.50
2023-01-12T00:45:21.207Z,21.50
2023-01-12T00:47:48.973Z,21.50
2023-01-12T00:50:19.261Z,21.50
2023-01-12T00:52:47.611Z,21.50
2023-01-12T00:55:15.178Z,21.50
2023-01-12T00:57:43.403Z,21.50
2023-01-12T01:00:11.985Z,21.50
2023-01-12T01:02:39.666Z,21.40
2023-01-12T01:05:07.502Z,21.40
2023-01-12T01:07:34.967Z,21.40
2023-01-12T01:10:02.367Z,21.40
2023-01-12T01:12:29.873Z,21.40
2023-01-12T01:14:57.403Z,21.40
2023-01-12T01:17:25.064Z,21.30
2023-01-12T01:19:52.704Z,21.30
2023-01-12T01:22:22.881Z,21.30
2023-01-12T01:24:50.629Z,21.20
2023-01-12T01:27:18.095Z,21.20
2023-01-12T01:29:45.553Z,21.20
2023-01-12T01:32:13.174Z,21.20
2023-01-12T01:34:41.452Z,21.20
2023-01-12T01:37:08.885Z,21.20
2023-01-12T01:39:36.465Z,21.20
2023-01-12T01:42:04.060Z,21.20
2023-01-12T01:44:31.609Z,21.20
2023-01-12T01:47:23.870Z,21.20
2023-01-12T01:49:58.724Z,21.20
2023-01-12T01:52:33.289Z,21.20
2023-01-12T01:56:04.850Z,21.20
2023-01-12T01:58:52.756Z,21.20
2023-01-12T02:01:20.492Z,21.10
2023-01-12T02:03:48.516Z,21.10
2023-01-12T02:06:16.298Z,21.10
2023-01-12T02:08:56.846Z,21.10
2023-01-12T02:11:44.655Z,21.10
2023-01-12T02:14:32.079Z,21.10
2023-01-12T02:17:53.326Z,21.10
2023-01-12T02:20:51.827Z,21.10
2023-01-12T02:24:13.818Z,21.10
2023-01-12T02:27:31.052Z,21.10
2023-01-12T02:30:35.395Z,21.10
2023-01-12T02:33:31.753Z,21.10
2023-01-12T02:36:30.846Z,21.10
2023-01-12T02:39:19.414Z,21.10
2023-01-12T02:42:44.363Z,21.10
2023-01-12T02:45:37.262Z,21.10
2023-01-12T02:48:35.158Z,21.10
2023-01-12T02:51:38.080Z,21.00
2023-01-12T02:54:18.590Z,21.00
2023-01-12T02:56:53.634Z,21.00
2023-01-12T02:59:24.856Z,21.00
2023-01-12T03:02:00.240Z,21.00
2023-01-12T03:04:30.279Z,21.00
2023-01-12T03:06:57.849Z,21.00
2023-01-12T03:09:51.879Z,21.00
2023-01-12T03:12:28.910Z,21.00
2023-01-12T03:15:00.477Z,21.00
2023-01-12T03:17:57.199Z,21.00
2023-01-12T03:20:33.712Z,21.00
2023-01-12T03:23:42.430Z,20.90
2023-01-12T03:26:12.751Z,20.90
2023-01-12T03:28:46.963Z,20.90
2023-01-12T03:31:15.792Z,20.90
2023-01-12T03:33:44.956Z,20.90
2023-01-12T03:36:42.942Z,20.90
2023-01-12T03:39:26.646Z,20.90
2023-01-12T03:42:07.614Z,20.90
2023-01-12T03:45:29.704Z,20.90
2023-01-12T03:48:22.843Z,20.90
2023-01-12T03:51:06.728Z,20.90
2023-01-12T03:53:35.584Z,20.90
2023-01-12T03:56:09.707Z,20.90
2023-01-12T03:58:37.868Z,20.80
2023-01-12T04:01:06.477Z,20.80
2023-01-12T04:03:34.174Z,20.80
2023-01-12T04:06:01.721Z,20.80
2023-01-12T04:08:29.334Z,20.80
2023-01-12T04:10:56.997Z,20.80
2023-01-12T04:13:24.588Z,20.80
2023-01-12T04:15:52.138Z,20.80
2023-01-12T04:18:19.464Z,20.80
2023-01-12T04:20:47.754Z,20.80
2023-01-12T04:23:15.210Z,20.80
2023-01-12T04:25:42.657Z,20.80
2023-01-12T04:28:10.296Z,20.80
2023-01-12T04:30:37.736Z,20.80
2023-01-12T04:33:09.560Z,20.80
2023-01-12T04:35:37.148Z,20.80
2023-01-12T04:38:10.233Z,20.80
2023-01-12T04:40:37.933Z,20.80
2023-01-12T04:43:08.436Z,20.70
2023-01-12T04:45:44.080Z,20.70
2023-01-12T04:48:14.260Z,20.70
2023-01-12T04:50:44.577Z,20.80
2023-01-12T04:53:13.994Z,20.70
2023-01-12T04:55:43.506Z,20.70
2023-01-12T04:58:11.498Z,20.70
2023-01-12T05:00:39.032Z,20.70
2023-01-12T05:03:06.362Z,20.70
2023-01-12T05:05:34.290Z,20.70
2023-01-12T05:08:25.542Z,20.70
2023-01-12T05:10:58.536Z,20.70
2023-01-12T05:13:31.702Z,20.70
2023-01-12T05:16:10.267Z,20.70
2023-01-12T05:18:37.792Z,20.70
2023-01-12T05:21:05.828Z,20.70
2023-01-12T05:23:33.503Z,20.70
2023-01-12T05:26:02.690Z,20.70
2023-01-12T05:28:31.285Z,20.70
2023-01-12T05:31:11.703Z,20.70
2023-01-12T05:33:41.470Z,20.70
2023-01-12T05:36:12.265Z,20.70
2023-01-12T05:38:40.524Z,20.70
2023-01-12T05:41:10.539Z,20.70
2023-01-12T05:43:55.014Z,20.70
2023-01-12T05:46:29.827Z,20.70
2023-01-12T05:48:58.687Z,20.70
2023-01-12T05:51:27.901Z,20.70
2023-01-12T05:53:55.884Z,20.70
2023-01-12T05:56:26.978Z,20.70
2023-01-12T05:58:58.612Z,20.70
2023-01-12T06:01:27.436Z,20.80
2023-01-12T06:03:57.650Z,20.70
2023-01-12T06:06:28.111Z,20.70
2023-01-12T06:08:55.731Z,20.80
2023-01-12T06:11:41.964Z,20.80
2023-01-12T06:14:10.251Z,20.80
2023-01-12T06:16:40.290Z,20.80
2023-01-12T06:19:08.732Z,20.80
2023-01-12T06:21:36.380Z,20.80
2023-01-12T06:24:04.396Z,20.80
2023-01-12T06:26:31.906Z,20.80
2023-01-12T06:28:59.423Z,20.70
2023-01-12T06:31:27.138Z,20.70
2023-01-12T06:33:54.699Z,20.70
2023-01-12T06:36:22.341Z,20.70
2023-01-12T06:38:50.009Z,20.70
2023-01-12T06:41:36.177Z,20.70
2023-01-12T06:44:03.836Z,20.70
2023-01-12T06:46:31.539Z,20.70
2023-01-12T06:48:59.449Z,20.70
2023-01-12T06:51:27.414Z,20.70
2023-01-12T06:53:55.196Z,20.70
2023-01-12T06:56:26.054Z,20.70
2023-01-12T06:58:53.935Z,20.70
2023-01-12T07:01:21.731Z,20.70
2023-01-12T07:03:49.398Z,20.70
2023-01-12T07:06:16.992Z,20.70
2023-01-12T07:08:44.701Z,20.70
2023-01-12T07:11:13.105Z,20.70
2023-01-12T07:13:40.688Z,20.80
2023-01-12T07:16:08.443Z,20.80
2023-01-12T07:18:36.345Z,20.80
2023-01-12T07:21:09.127Z,20.80
2023-01-12T07:23:38.001Z,20.80
2023-01-12T07:26:05.735Z,20.80
2023-01-12T07:28:34.175Z,20.80
2023-01-12T07:31:03.676Z,20.80
2023-01-12T07:33:32.167Z,20.80
2023-01-12T07:36:01.919Z,20.80
2023-01-12T07:38:31.083Z,20.80
2023-01-12T07:41:01.211Z,20.80
2023-01-12T07:43:29.238Z,20.80
2023-01-12T07:45:58.342Z,20.80
2023-01-12T07:48:27.753Z,20.80
2023-01-12T07:50:55.483Z,20.90
2023-01-12T07:53:24.118Z,20.90
2023-01-12T07:55:51.612Z,20.90
2023-01-12T07:58:19.039Z,20.90
2023-01-12T08:00:46.590Z,20.90
2023-01-12T08:03:15.268Z,20.90
2023-01-12T08:05:44.789Z,20.90
2023-01-12T08:08:12.252Z,20.90
2023-01-12T08:10:41.220Z,20.90
2023-01-12T08:13:08.987Z,20.90
2023-01-12T08:15:45.455Z,20.90
2023-01-12T08:18:34.585Z,20.90
2023-01-12T08:21:08.134Z,20.90
2023-01-12T08:23:42.602Z,20.90
2023-01-12T08:26:17.723Z,20.80
2023-01-12T08:29:02.896Z,20.90
2023-01-12T08:31:32.953Z,20.90
2023-01-12T08:34:00.861Z,20.90
2023-01-12T08:36:30.811Z,20.90
2023-01-12T08:38:58.616Z,20.90
2023-01-12T08:41:37.692Z,20.90
2023-01-12T08:44:12.160Z,20.90
2023-01-12T08:46:49.014Z,20.80
2023-01-12T08:49:22.892Z,20.80
2023-01-12T08:51:50.876Z,20.80
2023-01-12T08:54:20.032Z,20.80
2023-01-12T08:56:48.065Z,20.80
2023-01-12T08:59:19.546Z,20.80
2023-01-12T09:01:47.262Z,20.80
2023-01-12T09:04:14.741Z,20.70
2023-01-12T09:06:48.519Z,20.70
2023-01-12T09:09:19.398Z,20.70
2023-01-12T09:11:49.080Z,20.60
2023-01-12T09:14:18.133Z,20.70
2023-01-12T09:16:45.839Z,20.60
2023-01-12T09:19:13.417Z,20.60
2023-01-12T09:21:42.355Z,20.60
2023-01-12T09:24:11.953Z,20.60
2023-01-12T09:26:46.795Z,20.60
2023-01-12T09:29:15.723Z,20.60
2023-01-12T09:31:45.930Z,20.50
2023-01-12T09:34:13.862Z,20.50
2023-01-12T09:36:42.289Z,20.50
2023-01-12T09:39:26.276Z,20.50
2023-01-12T09:42:13.630Z,20.50
2023-01-12T09:45:04.648Z,20.50
2023-01-12T09:47:39.865Z,20.50
2023-01-12T09:50:17.170Z,20.50
2023-01-12T09:52:48.979Z,20.50
2023-01-12T09:55:24.146Z,20.60
2023-01-12T09:58:37.457Z,20.50
2023-01-12T10:01:24.087Z,20.50
2023-01-12T10:03:56.966Z,20.50
2023-01-12T10:06:24.662Z,20.50
2023-01-12T10:09:18.320Z,20.50
2023-01-12T10:12:17.381Z,20.50
2023-01-12T10:15:08.096Z,20.50
2023-01-12T10:17:51.407Z,20.50
2023-01-12T10:20:28.642Z,20.50
2023-01-12T10:23:08.238Z,20.50
2023-01-12T10:25:42.808Z,20.60
2023-01-12T10:28:33.602Z,20.60
2023-01-12T10:31:02.354Z,20.60
2023-01-12T10:33:33.507Z,20.60
2023-01-12T10:36:16.638Z,20.50
2023-01-12T10:39:01.148Z,20.50
2023-01-12T10:41:32.858Z,20.50
2023-01-12T10:44:00.382Z,20.50
2023-01-12T10:46:33.374Z,20.50
2023-01-12T10:49:22.180Z,20.60
2023-01-12T10:52:28.119Z,20.50
2023-01-12T10:54:57.153Z,20.50
2023-01-12T10:57:26.422Z,20.50
2023-01-12T10:59:59.967Z,20.50
2023-01-12T11:02:42.695Z,20.50
2023-01-12T11:05:37.659Z,20.50
2023-01-12T11:08:29.090Z,20.60
2023-01-12T11:10:56.761Z,20.60
2023-01-12T11:13:37.651Z,20.60
2023-01-12T11:16:25.200Z,20.60
2023-01-12T11:19:22.648Z,20.60
2023-01-12T11:22:01.507Z,20.60
2023-01-12T11:24:44.522Z,20.60
2023-01-12T11:27:23.207Z,20.60
2023-01-12T11:30:08.346Z,20.60
2023-01-12T11:32:46.301Z,20.70
2023-01-12T11:35:31.894Z,20.70
2023-01-12T11:38:03.836Z,20.70
2023-01-12T11:40:37.863Z,20.60
2023-01-12T11:43:50.632Z,20.60
2023-01-12T11:46:40.847Z,20.70
2023-01-12T11:49:20.377Z,20.70
2023-01-12T11:51:57.207Z,20.70
2023-01-12T11:54:30.773Z,20.70
2023-01-12T11:57:19.343Z,20.70
2023-01-12T12:00:32.611Z,20.70
2023-01-12T12:03:27.469Z,20.70
2023-01-12T12:06:16.036Z,20.70
2023-01-12T12:08:59.008Z,20.70
2023-01-12T12:11:33.494Z,20.70
2023-01-12T12:14:23.754Z,20.70
2023-01-12T12:17:11.405Z,20.70
2023-01-12T12:20:29.848Z,20.70
2023-01-12T12:23:16.364Z,20.70
2023-01-12T12:26:31.035Z,20.70
2023-01-12T12:29:30.249Z,20.70
2023-01-12T12:32:30.203Z,20.70
2023-01-12T12:35:41.715Z,20.80
2023-01-12T12:39:01.707Z,20.80
2023-01-12T12:42:10.045Z,20.80
2023-01-12T12:45:22.205Z,20.80
2023-01-12T12:48:27.334Z,20.80
2023-01-12T12:51:04.812Z,20.80
2023-01-12T12:53:40.886Z,20.80
2023-01-12T12:56:16.385Z,20.90
2023-01-12T12:59:32.291Z,20.80
2023-01-12T13:02:02.379Z,20.90
2023-01-12T13:04:53.781Z,20.80
2023-01-12T13:07:22.740Z,20.80
2023-01-12T13:09:51.200Z,20.80
2023-01-12T13:12:36.583Z,20.80
2023-01-12T13:15:37.365Z,20.80
2023-01-12T13:18:06.838Z,20.90
2023-01-12T13:20:53.290Z,20.90
2023-01-12T13:23:51.646Z,20.80
2023-01-12T13:26:35.057Z,20.80
2023-01-12T13:29:25.023Z,20.90
2023-01-12T13:32:17.874Z,20.90
2023-01-12T13:34:51.985Z,20.90
2023-01-12T13:37:19.373Z,20.90
2023-01-12T13:40:08.187Z,20.90
2023-01-12T13:42:55.345Z,20.90
2023-01-12T13:45:23.769Z,20.90
2023-01-12T13:47:53.659Z,20.90
2023-01-12T13:50:25.805Z,20.90
2023-01-12T13:53:02.559Z,20.90
2023-01-12T13:55:33.140Z,20.90
2023-01-12T13:58:05.624Z,20.90
2023-01-12T14:00:35.067Z,20.90
2023-01-12T14:03:04.663Z,21.00
2023-01-12T14:05:53.850Z,20.90
2023-01-12T14:08:50.795Z,20.90
2023-01-12T14:11:40.470Z,21.00
2023-01-12T14:14:54.645Z,21.00
2023-01-12T14:17:48.576Z,21.00
2023-01-12T14:20:22.875Z,21.00
2023-01-12T14:23:20.087Z,21.00
2023-01-12T14:26:09.905Z,21.00
2023-01-12T14:28:43.204Z,21.00
2023-01-12T14:31:39.688Z,21.10
2023-01-12T14:34:35.260Z,21.20
2023-01-12T14:37:30.593Z,21.30
2023-01-12T14:39:58.361Z,21.40
2023-01-12T14:42:44.592Z,21.50
2023-01-12T14:45:46.046Z,21.60
2023-01-12T14:48:32.574Z,21.80
2023-01-12T14:51:29.406Z,21.90
2023-01-12T14:54:06.331Z,22.10
2023-01-12T14:56:42.625Z,22.10
2023-01-12T14:59:23.858Z,22.20
2023-01-12T15:01:53.476Z,22.20
2023-01-12T15:04:26.251Z,22.30
2023-01-12T15:07:06.344Z,22.40
2023-01-12T15:09:58.637Z,22.50
2023-01-12T15:12:31.890Z,22.50
2023-01-12T15:15:17.931Z,22.60
2023-01-12T15:18:04.470Z,22.70
2023-01-12T15:20:58.770Z,22.70
2023-01-12T15:23:54.329Z,22.80
2023-01-12T15:26:23.321Z,22.80
2023-01-12T15:28:53.478Z,22.80
2023-01-12T15:31:34.933Z,22.80
2023-01-12T15:34:03.567Z,22.80
2023-01-12T15:36:31.561Z,22.90
2023-01-12T15:38:59.848Z,23.00
2023-01-12T15:41:50.753Z,23.10
2023-01-12T15:44:21.254Z,23.10
2023-01-12T15:46:49.063Z,23.10
2023-01-12T15:49:17.751Z,23.20
2023-01-12T15:51:49.861Z,23.30
2023-01-12T15:54:19.966Z,23.40
2023-01-12T15:56:48.482Z,23.40
2023-01-12T15:59:16.741Z,23.40
2023-01-12T16:01:48.534Z,23.50
2023-01-12T16:07:10.468Z,23.50
2023-01-12T16:09:38.065Z,23.50
2023-01-12T16:12:05.988Z,23.50
2023-01-12T16:14:33.740Z,23.60
2023-01-12T16:17:01.432Z,23.60
2023-01-12T16:19:29.207Z,23.70
2023-01-12T16:21:56.859Z,23.70
2023-01-12T16:24:26.985Z,23.70
2023-01-12T16:26:54.579Z,23.70
2023-01-12T16:29:23.944Z,23.80
2023-01-12T16:31:51.660Z,23.70
2023-01-12T16:34:23.035Z,23.80
2023-01-12T16:36:50.844Z,23.80
2023-01-12T16:39:18.858Z,23.80
2023-01-12T16:41:46.502Z,23.90
2023-01-12T16:44:14.023Z,23.90
2023-01-12T16:46:41.949Z,23.90
2023-01-12T16:49:09.680Z,23.90
2023-01-12T16:51:37.294Z,23.90
2023-01-12T16:54:04.929Z,23.90
2023-01-12T16:56:32.643Z,23.90
2023-01-12T16:59:02.479Z,23.90
2023-01-12T17:01:30.069Z,24.00
2023-01-12T17:03:58.531Z,24.00
2023-01-12T17:06:28.847Z,24.10
2023-01-12T17:08:57.208Z,24.10
2023-01-12T17:11:26.139Z,24.10
2023-01-12T17:13:56.673Z,24.20
2023-01-12T17:16:26.550Z,24.20
2023-01-12T17:18:54.568Z,24.20
2023-01-12T17:21:23.050Z,24.20
2023-01-12T17:23:50.673Z,24.20
2023-01-12T17:26:19.531Z,24.30
2023-01-12T17:28:48.235Z,24.30
2023-01-12T17:31:18.957Z,24.30
2023-01-12T17:33:46.868Z,24.30
2023-01-12T17:36:14.676Z,24.30
2023-01-12T17:38:42.390Z,24.30
2023-01-12T17:41:35.295Z,24.30
2023-01-12T17:44:05.608Z,24.30
2023-01-12T17:46:34.422Z,24.40
2023-01-12T17:49:07.402Z,24.40
2023-01-12T17:51:35.663Z,24.40
2023-01-12T17:54:05.782Z,24.40
2023-01-12T17:56:35.619Z,24.40
2023-01-12T17:59:04.952Z,24.40
2023-01-12T18:01:35.585Z,24.40
2023-01-12T18:04:04.110Z,24.50
2023-01-12T18:06:31.805Z,24.50
2023-01-12T18:09:02.089Z,24.60
2023-01-12T18:11:31.456Z,24.60
2023-01-12T18:14:02.994Z,24.60
2023-01-12T18:17:46.975Z,24.60
2023-01-12T18:20:39.698Z,24.60
2023-01-12T18:23:07.146Z,24.60
2023-01-12T18:34:49.842Z,24.60
2023-01-12T18:37:17.429Z,24.50
2023-01-12T18:39:45.420Z,24.50
2023-01-12T18:42:31.704Z,24.50
2023-01-12T18:44:59.730Z,24.50
2023-01-12T18:47:45.908Z,24.50
2023-01-12T18:50:32.005Z,24.60
2023-01-12T18:53:20.684Z,24.70
2023-01-12T18:55:50.538Z,24.70
2023-01-12T18:58:18.050Z,24.80
2023-01-12T19:00:45.589Z,24.80
2023-01-12T19:03:13.484Z,24.80
2023-01-12T19:05:55.796Z,24.80
2023-01-12T19:08:41.925Z,24.80
2023-01-12T19:11:14.590Z,24.80
2023-01-12T19:14:01.017Z,24.80
2023-01-12T19:16:47.190Z,24.80
2023-01-12T19:19:15.097Z,24.80
2023-01-12T19:22:01.297Z,24.80
2023-01-12T19:24:47.367Z,24.90
2023-01-12T19:27:33.338Z,24.80
2023-01-12T19:30:01.087Z,24.80
2023-01-12T19:32:28.695Z,24.90
2023-01-12T19:35:02.395Z,24.90
2023-01-12T19:37:33.597Z,24.80
2023-01-12T19:40:11.109Z,24.90
2023-01-12T19:42:57.361Z,24.90
2023-01-12T19:45:25.109Z,24.90
2023-01-12T19:47:52.712Z,24.90
2023-01-12T19:50:20.430Z,24.90
2023-01-12T19:52:48.050Z,24.90
2023-01-12T19:55:16.528Z,24.90
2023-01-12T19:57:44.245Z,24.90
2023-01-12T20:00:17.756Z,24.90
2023-01-12T20:02:46.064Z,25.00
2023-01-12T20:05:17.530Z,24.90
2023-01-12T20:07:45.157Z,25.00
2023-01-12T20:10:12.685Z,25.10
2023-01-12T20:12:40.391Z,25.00
2023-01-12T20:15:08.679Z,25.00
2023-01-12T20:17:36.366Z,25.00
2023-01-12T20:20:08.487Z,25.10
2023-01-12T20:22:36.748Z,25.10
2023-01-12T20:25:06.448Z,25.10
2023-01-12T20:27:35.854Z,25.00
2023-01-12T20:30:06.070Z,25.00
2023-01-12T20:32:42.096Z,25.10
2023-01-12T20:35:19.406Z,25.00
2023-01-12T20:37:47.464Z,25.00
2023-01-12T20:40:15.804Z,25.00
2023-01-12T20:42:43.551Z,24.90
2023-01-12T20:45:13.839Z,25.00
2023-01-12T20:47:42.436Z,24.90
2023-01-12T20:50:14.035Z,24.90
2023-01-12T20:52:42.096Z,24.80
2023-01-12T20:55:10.143Z,24.90
2023-01-12T20:57:41.359Z,24.90
2023-01-12T21:00:11.210Z,24.90
2023-01-12T21:02:38.745Z,24.90
2023-01-12T21:05:08.048Z,24.90
2023-01-12T21:07:35.800Z,25.00
2023-01-12T21:10:32.504Z,25.00
2023-01-12T21:13:03.876Z,25.00
2023-01-12T21:18:52.769Z,25.00
2023-01-12T21:21:20.444Z,25.00
2023-01-12T21:23:47.981Z,25.00
2023-01-12T21:26:16.440Z,25.00
2023-01-12T21:28:45.389Z,24.90
2023-01-12T21:31:14.338Z,25.00
2023-01-12T21:33:45.081Z,25.00
2023-01-12T21:36:14.037Z,25.00
2023-01-12T21:38:41.512Z,25.00
2023-01-12T21:41:14.003Z,25.00
2023-01-12T21:43:41.555Z,25.00
2023-01-12T21:46:10.977Z,25.00
2023-01-12T21:48:38.441Z,25.10
2023-01-12T21:51:12.990Z,25.10
2023-01-12T21:53:42.266Z,25.10
2023-01-12T21:56:13.841Z,25.00
2023-01-12T21:58:41.369Z,25.00
2023-01-12T22:01:14.954Z,25.00
2023-01-12T22:03:42.886Z,25.00
2023-01-12T22:06:12.986Z,25.00
2023-01-12T22:08:42.249Z,25.00
2023-01-12T22:11:13.615Z,25.00
2023-01-12T22:13:42.012Z,25.00
2023-01-12T22:16:12.977Z,24.90
2023-01-12T22:18:49.420Z,24.80
2023-01-12T22:21:19.361Z,24.80
2023-01-12T22:23:47.392Z,24.90
2023-01-12T22:26:16.526Z,24.90
2023-01-12T22:28:47.872Z,24.90
2023-01-12T22:31:24.270Z,25.00
2023-01-12T22:34:05.074Z,25.00
2023-01-12T22:36:37.218Z,25.00
2023-01-12T22:39:04.941Z,25.00
2023-01-12T22:41:32.393Z,25.00
2023-01-12T22:44:02.171Z,25.00
2023-01-12T22:46:29.939Z,25.00
2023-01-12T22:49:01.459Z,25.00
2023-01-12T22:51:30.024Z,25.00
2023-01-12T22:53:58.050Z,25.00
2023-01-12T22:56:26.195Z,25.00
2023-01-12T22:58:56.256Z,25.00
2023-01-12T23:01:28.545Z,25.00
2023-01-12T23:03:57.811Z,25.00
2023-01-12T23:06:26.854Z,25.00
2023-01-12T23:08:54.933Z,25.00
2023-01-12T23:11:26.063Z,25.00
2023-01-12T23:13:57.258Z,25.00
2023-01-12T23:16:27.497Z,24.90
2023-01-12T23:18:55.628Z,24.90
2023-01-12T23:21:27.322Z,24.90
2023-01-12T23:23:58.317Z,24.90
2023-01-12T23:26:31.426Z,24.80
2023-01-12T23:29:03.417Z,24.80
2023-01-12T23:31:34.135Z,24.80
2023-01-12T23:34:06.196Z,24.80
2023-01-12T23:36:34.517Z,24.80
2023-01-12T23:39:05.465Z,24.80
2023-01-12T23:41:36.493Z,24.70
2023-01-12T23:44:09.503Z,24.70
2023-01-12T23:46:40.574Z,24.70
2023-01-12T23:49:08.261Z,24.60
2023-01-12T23:51:36.824Z,24.60
2023-01-12T23:54:04.970Z,24.50
2023-01-12T23:56:34.113Z,24.50
2023-01-12T23:59:02.063Z,24.40
